Terminal Aerodrome Forecast
Issued by NWS Twin Cities, MN

Home | Current Version | Previous Version | Graphics & Text | Print | Product List | Glossary On
Versions: 1 2 3 4 5 6 7 8 9 10 11 12 13 14 15 16 17 18 19 20 21 22 23 24
000
FTUS43 KMPX 191146
TAFEAU
TAF
KEAU 191146Z 1912/2012 16003KT 3SM BR SCT002
     FM191500 17008KT 1SM BR OVC004
     FM192000 16004KT 5SM BR SCT007 OVC010
     FM200200 13003KT 2SM BR OVC007
     FM200600 13003KT 3SM -RA BR OVC005=

USA.gov is the U.S. government's official web portal to all federal, state and local government web resources and services.